Time;durP1;ratioP1;P1;durP2;ratioP2;P2;SDS_P1;SDS_P2;PMS_P1;PMS_P2;Temp;Humidity;BMP_temperature;BMP_pressure;BME280_temperature;BME280_humidity;BME280_pressure;Samples;Min_cycle;Max_cycle;Signal;HPM_P1;HPM_P2
2022/09/06 00:00:30;;;;;;;13.53;11.40;;;17.70;99.90;;;;;;6058765;23;20221;-61
2022/09/06 00:02:58;;;;;;;13.10;11.43;;;17.70;99.90;;;;;;6057545;23;20210;-61
2022/09/06 00:05:26;;;;;;;12.43;10.73;;;17.70;99.90;;;;;;6063151;23;20300;-61
2022/09/06 00:07:55;;;;;;;11.87;10.37;;;17.60;99.90;;;;;;6061375;23;20196;-61
2022/09/06 00:10:23;;;;;;;13.50;10.43;;;17.60;99.90;;;;;;6061387;23;20172;-61
2022/09/06 00:12:52;;;;;;;13.30;11.03;;;17.60;99.90;;;;;;6056728;23;20257;-61
2022/09/06 00:15:21;;;;;;;13.37;10.00;;;17.50;99.90;;;;;;6059200;23;20247;-61
2022/09/06 00:17:51;;;;;;;10.93;9.93;;;17.40;99.90;;;;;;6061368;23;20174;-61
2022/09/06 00:20:20;;;;;;;12.63;9.97;;;17.40;99.90;;;;;;6058489;23;20240;-61
2022/09/06 00:22:48;;;;;;;11.97;9.87;;;17.40;99.90;;;;;;6059122;23;20249;-61
2022/09/06 00:25:16;;;;;;;12.77;9.33;;;17.40;99.90;;;;;;6037148;23;20196;-61
2022/09/06 00:27:45;;;;;;;12.70;9.73;;;17.30;99.90;;;;;;6033872;23;20228;-61
2022/09/06 00:30:13;;;;;;;15.40;9.67;;;17.30;99.90;;;;;;6064593;23;20618;-61
2022/09/06 00:32:42;;;;;;;12.63;10.20;;;17.30;99.90;;;;;;6033746;23;20220;-61
2022/09/06 00:35:11;;;;;;;12.17;10.00;;;17.30;99.90;;;;;;6062242;23;20257;-61
2022/09/06 00:37:40;;;;;;;15.10;10.23;;;17.20;99.90;;;;;;6061505;23;20207;-61
2022/09/06 00:40:09;;;;;;;11.87;9.67;;;17.20;99.90;;;;;;6061888;23;20177;-62
2022/09/06 00:42:38;;;;;;;14.87;8.80;;;17.10;99.90;;;;;;6061975;23;20637;-61
2022/09/06 00:45:08;;;;;;;13.50;8.87;;;17.10;99.90;;;;;;6058855;23;20257;-61
2022/09/06 00:47:40;;;;;;;12.60;9.83;;;17.00;99.90;;;;;;6061936;23;20540;-61
2022/09/06 00:50:13;;;;;;;16.57;10.33;;;17.00;99.90;;;;;;6035926;23;20538;-61
2022/09/06 00:52:42;;;;;;;12.97;9.70;;;17.00;99.90;;;;;;6060538;23;20668;-61
2022/09/06 00:55:11;;;;;;;12.13;9.40;;;17.00;99.90;;;;;;6036781;23;20161;-61
2022/09/06 00:57:40;;;;;;;11.30;9.77;;;16.90;99.90;;;;;;6062873;23;20243;-61
2022/09/06 01:00:09;;;;;;;14.23;10.00;;;16.90;99.90;;;;;;6061140;23;20798;-61
2022/09/06 01:02:38;;;;;;;12.80;10.60;;;16.80;99.90;;;;;;6059802;23;20175;-61
2022/09/06 01:05:07;;;;;;;13.60;10.53;;;16.80;99.90;;;;;;6059176;23;20190;-61
2022/09/06 01:07:49;;;;;;;10.93;9.93;;;16.80;99.90;;;;;;6036122;23;20250;-61
2022/09/06 01:10:41;;;;;;;13.27;10.30;;;16.80;99.90;;;;;;6060640;23;20176;-61
2022/09/06 01:13:22;;;;;;;12.50;10.83;;;16.70;99.90;;;;;;6060417;23;20206;-62
2022/09/06 01:16:01;;;;;;;13.93;10.73;;;16.80;99.90;;;;;;6059308;23;20219;-61
2022/09/06 01:18:42;;;;;;;12.87;10.27;;;16.80;99.90;;;;;;6060624;23;20181;-61
2022/09/06 01:21:24;;;;;;;12.57;10.90;;;16.70;99.90;;;;;;6036857;23;20256;-61
2022/09/06 01:24:24;;;;;;;13.20;11.00;;;16.70;99.90;;;;;;6058106;23;20179;-61
2022/09/06 01:27:34;;;;;;;14.03;10.90;;;16.60;99.90;;;;;;6062285;23;20243;-61
2022/09/06 01:30:06;;;;;;;11.20;10.00;;;16.60;99.90;;;;;;6060296;23;20220;-61
2022/09/06 01:32:44;;;;;;;13.13;9.87;;;16.50;99.90;;;;;;6062556;23;20186;-61
2022/09/06 01:35:18;;;;;;;16.33;11.43;;;16.50;99.90;;;;;;6058215;23;20156;-61
2022/09/06 01:37:47;;;;;;;12.73;11.03;;;16.50;99.90;;;;;;6061757;23;20268;-62
2022/09/06 01:40:15;;;;;;;12.47;11.17;;;16.50;99.90;;;;;;6034607;23;20173;-62
2022/09/06 01:42:46;;;;;;;15.53;12.13;;;16.50;99.90;;;;;;6060852;23;20678;-61
2022/09/06 01:45:19;;;;;;;14.73;12.70;;;16.50;99.90;;;;;;6059188;23;20210;-61
2022/09/06 01:48:00;;;;;;;16.83;12.13;;;16.50;99.90;;;;;;6061103;23;20170;-61
2022/09/06 01:50:38;;;;;;;17.20;11.23;;;16.50;99.90;;;;;;6060960;23;20208;-62
2022/09/06 01:53:16;;;;;;;14.23;10.40;;;16.40;99.90;;;;;;6059938;23;20231;-61
2022/09/06 01:55:51;;;;;;;18.17;12.10;;;16.30;99.90;;;;;;6059482;23;20199;-61
2022/09/06 01:58:52;;;;;;;14.77;11.73;;;16.20;99.90;;;;;;6060416;23;20177;-61
2022/09/06 02:01:28;;;;;;;17.37;12.10;;;16.20;99.90;;;;;;6059442;23;20243;-61
2022/09/06 02:04:01;;;;;;;16.67;11.63;;;16.20;99.90;;;;;;6061866;23;20711;-61
2022/09/06 02:06:32;;;;;;;12.90;11.03;;;16.20;99.90;;;;;;6035116;23;20196;-61
2022/09/06 02:09:05;;;;;;;13.43;10.60;;;16.20;99.90;;;;;;6060821;23;20277;-62
2022/09/06 02:11:39;;;;;;;12.90;10.43;;;16.10;99.90;;;;;;6060574;23;20253;-62
2022/09/06 02:14:13;;;;;;;13.20;10.87;;;16.10;99.90;;;;;;6060978;23;20220;-61
2022/09/06 02:16:48;;;;;;;15.33;10.73;;;16.10;99.90;;;;;;6062486;23;20185;-62
2022/09/06 02:19:21;;;;;;;11.53;9.97;;;16.20;99.90;;;;;;6060830;23;20232;-61
2022/09/06 02:21:53;;;;;;;14.37;10.90;;;16.20;99.90;;;;;;6013283;23;20211;-62
2022/09/06 02:24:26;;;;;;;10.57;9.53;;;16.10;99.90;;;;;;6058734;23;20163;-62
2022/09/06 02:26:54;;;;;;;12.50;10.50;;;16.10;99.90;;;;;;6058857;23;20514;-61
2022/09/06 02:29:23;;;;;;;13.13;10.97;;;16.20;99.90;;;;;;6058339;23;20658;-61
2022/09/06 02:31:59;;;;;;;13.80;10.60;;;16.10;99.90;;;;;;6059106;23;20200;-61
2022/09/06 02:34:28;;;;;;;12.50;10.83;;;16.10;99.90;;;;;;6058207;23;20668;-61
2022/09/06 02:36:56;;;;;;;14.10;11.00;;;16.10;99.90;;;;;;6063789;23;20202;-61
2022/09/06 02:39:24;;;;;;;13.90;9.87;;;16.10;99.90;;;;;;6063183;23;20248;-61
2022/09/06 02:41:53;;;;;;;16.63;10.80;;;16.10;99.90;;;;;;6039205;23;20168;-61
2022/09/06 02:44:21;;;;;;;14.70;10.43;;;16.00;99.90;;;;;;6061717;23;20172;-61
2022/09/06 02:46:50;;;;;;;11.60;10.27;;;16.00;99.90;;;;;;6064054;23;20271;-61
2022/09/06 02:49:25;;;;;;;12.13;10.80;;;16.00;99.90;;;;;;6063496;23;20166;-61
2022/09/06 02:51:53;;;;;;;12.87;10.07;;;16.00;99.90;;;;;;6059671;23;20176;-62
2022/09/06 02:54:22;;;;;;;19.57;10.57;;;16.00;99.90;;;;;;6058608;23;20211;-61
2022/09/06 02:56:50;;;;;;;11.70;10.23;;;16.00;99.90;;;;;;6060720;23;20176;-61
2022/09/06 02:59:19;;;;;;;11.63;10.37;;;16.00;99.90;;;;;;6060266;23;20185;-61
2022/09/06 03:01:48;;;;;;;15.93;10.23;;;16.00;99.90;;;;;;6057876;23;20180;-62
2022/09/06 03:04:16;;;;;;;17.40;11.13;;;16.00;99.90;;;;;;6035053;23;20260;-61
2022/09/06 03:06:45;;;;;;;16.30;10.60;;;16.00;99.90;;;;;;6037820;23;20277;-61
2022/09/06 03:09:14;;;;;;;12.87;10.40;;;16.00;99.90;;;;;;6059209;23;20263;-61
2022/09/06 03:11:43;;;;;;;17.03;9.90;;;15.90;99.90;;;;;;6061301;23;20208;-62
2022/09/06 03:14:11;;;;;;;16.07;10.13;;;15.90;99.90;;;;;;6034662;23;20173;-61
2022/09/06 03:16:39;;;;;;;14.97;10.47;;;15.90;99.90;;;;;;6063381;23;20340;-61
2022/09/06 03:19:08;;;;;;;13.27;10.20;;;15.90;99.90;;;;;;6062178;23;20170;-61
2022/09/06 03:21:36;;;;;;;11.10;9.47;;;15.90;99.90;;;;;;6059691;23;20547;-61
2022/09/06 03:24:06;;;;;;;13.07;10.40;;;15.90;99.90;;;;;;6059615;23;20220;-61
2022/09/06 03:26:35;;;;;;;20.27;10.00;;;15.90;99.90;;;;;;6035213;23;20211;-61
2022/09/06 03:29:03;;;;;;;13.07;9.73;;;15.90;99.90;;;;;;6060277;23;20223;-62
2022/09/06 03:31:32;;;;;;;11.30;10.07;;;15.90;99.90;;;;;;6034477;23;20643;-61
2022/09/06 03:34:00;;;;;;;13.50;10.03;;;15.90;99.90;;;;;;6038181;23;20189;-61
2022/09/06 03:36:28;;;;;;;12.17;9.37;;;15.90;99.90;;;;;;6056856;23;20667;-62
2022/09/06 03:38:57;;;;;;;12.07;9.60;;;15.90;99.90;;;;;;6033173;23;20268;-62
2022/09/06 03:41:29;;;;;;;11.20;9.13;;;15.90;99.90;;;;;;6034148;23;20193;-61
2022/09/06 03:43:57;;;;;;;12.27;9.40;;;15.90;99.90;;;;;;6059919;23;20503;-62
2022/09/06 03:46:29;;;;;;;11.60;9.33;;;15.80;99.90;;;;;;6062045;23;20272;-61
2022/09/06 03:48:58;;;;;;;13.13;10.57;;;15.80;99.90;;;;;;6060938;23;20205;-61
2022/09/06 03:51:26;;;;;;;12.33;9.43;;;15.80;99.90;;;;;;6063456;23;20168;-61
2022/09/06 03:53:56;;;;;;;12.97;10.33;;;15.80;99.90;;;;;;6060311;23;20187;-61
2022/09/06 03:56:25;;;;;;;13.30;9.80;;;15.80;99.90;;;;;;6036228;23;20219;-61
2022/09/06 03:58:54;;;;;;;13.40;9.47;;;15.80;99.90;;;;;;6060307;23;20174;-62
2022/09/06 04:01:23;;;;;;;16.60;10.40;;;15.70;99.90;;;;;;6060609;23;20172;-61
2022/09/06 04:03:52;;;;;;;13.43;11.00;;;15.70;99.90;;;;;;6061364;23;20619;-61
2022/09/06 04:06:20;;;;;;;16.37;10.93;;;15.70;99.90;;;;;;6058106;23;20193;-61
2022/09/06 04:08:49;;;;;;;17.93;11.13;;;15.80;99.90;;;;;;6035957;23;20205;-61
2022/09/06 04:11:17;;;;;;;13.63;10.73;;;15.80;99.90;;;;;;6037938;23;20173;-61
2022/09/06 04:13:45;;;;;;;14.80;10.33;;;15.70;99.90;;;;;;6060106;23;20172;-61
2022/09/06 04:16:16;;;;;;;14.43;11.20;;;15.70;99.90;;;;;;6062862;23;20170;-61
2022/09/06 04:18:45;;;;;;;15.13;10.80;;;15.70;99.90;;;;;;6060942;23;20603;-61
2022/09/06 04:21:13;;;;;;;12.77;10.70;;;15.70;99.90;;;;;;6034112;23;20215;-61
2022/09/06 04:23:41;;;;;;;10.70;9.53;;;15.70;99.90;;;;;;6059980;23;20766;-61
2022/09/06 04:26:10;;;;;;;12.20;10.70;;;15.60;99.90;;;;;;6034479;23;20239;-61
2022/09/06 04:28:38;;;;;;;12.40;10.33;;;15.60;99.90;;;;;;6058635;23;20208;-61
2022/09/06 04:31:06;;;;;;;11.50;10.27;;;15.60;99.90;;;;;;6060281;23;20244;-61
2022/09/06 04:33:37;;;;;;;10.90;9.80;;;15.50;99.90;;;;;;6062103;23;20165;-61
2022/09/06 04:36:08;;;;;;;11.73;9.43;;;15.50;99.90;;;;;;6035901;23;20165;-61
2022/09/06 04:38:37;;;;;;;10.77;9.53;;;15.50;99.90;;;;;;6061699;23;20160;-62
2022/09/06 04:41:07;;;;;;;11.63;9.60;;;15.50;99.90;;;;;;6058442;23;20168;-61
2022/09/06 04:43:35;;;;;;;13.90;9.60;;;15.40;99.90;;;;;;6060000;23;20173;-62
2022/09/06 04:46:05;;;;;;;11.50;9.87;;;15.40;99.90;;;;;;6060160;23;20247;-62
2022/09/06 04:48:33;;;;;;;14.83;10.23;;;15.40;99.90;;;;;;6061902;23;20254;-61
2022/09/06 04:51:03;;;;;;;15.80;10.80;;;15.40;99.90;;;;;;6056921;23;20244;-61
2022/09/06 04:53:32;;;;;;;16.53;11.10;;;15.40;99.90;;;;;;6062110;23;20253;-61
2022/09/06 04:56:00;;;;;;;17.07;10.20;;;15.40;99.90;;;;;;6054564;23;20544;-62
2022/09/06 04:58:29;;;;;;;11.87;9.50;;;15.40;99.90;;;;;;6056733;23;20184;-62
2022/09/06 05:00:57;;;;;;;16.70;10.50;;;15.30;99.90;;;;;;6059761;23;20193;-61
2022/09/06 05:03:25;;;;;;;18.43;11.77;;;15.30;99.90;;;;;;6058455;23;20247;-61
2022/09/06 05:06:06;;;;;;;17.73;12.43;;;15.30;99.90;;;;;;6061810;23;20249;-62
2022/09/06 05:08:36;;;;;;;14.23;11.57;;;15.30;99.90;;;;;;6060292;23;20195;-61
2022/09/06 05:11:06;;;;;;;17.63;11.03;;;15.40;99.90;;;;;;6056024;23;20269;-62
2022/09/06 05:13:34;;;;;;;15.80;11.40;;;15.30;99.90;;;;;;6056651;23;20237;-61
2022/09/06 05:16:05;;;;;;;14.60;11.33;;;15.30;99.90;;;;;;6034447;23;20229;-61
2022/09/06 05:18:34;;;;;;;19.67;12.50;;;15.30;99.90;;;;;;6062912;23;20163;-61
2022/09/06 05:21:02;;;;;;;19.13;13.23;;;15.30;99.90;;;;;;6062528;23;20241;-61
2022/09/06 05:23:32;;;;;;;18.50;12.83;;;15.40;99.90;;;;;;6062714;23;20203;-61
2022/09/06 05:26:00;;;;;;;20.50;13.40;;;15.50;99.90;;;;;;6059517;23;20642;-61
2022/09/06 05:28:28;;;;;;;19.80;12.70;;;15.50;99.90;;;;;;6057777;23;20244;-61
2022/09/06 05:31:06;;;;;;;27.50;14.13;;;15.50;99.90;;;;;;6062068;23;20697;-61
2022/09/06 05:33:35;;;;;;;22.83;13.23;;;15.60;99.90;;;;;;6058265;23;20192;-62
2022/09/06 05:36:03;;;;;;;18.53;12.87;;;15.60;99.90;;;;;;6035077;23;20635;-61
2022/09/06 05:38:33;;;;;;;21.77;13.77;;;15.60;99.90;;;;;;6061751;23;20163;-61
2022/09/06 05:41:02;;;;;;;19.17;13.97;;;15.70;99.90;;;;;;6062182;23;20586;-61
2022/09/06 05:43:30;;;;;;;19.43;14.03;;;15.70;99.90;;;;;;6060442;23;20172;-61
2022/09/06 05:45:59;;;;;;;19.60;13.20;;;15.80;99.90;;;;;;6060195;23;20173;-61
2022/09/06 05:48:29;;;;;;;29.80;14.97;;;15.80;99.90;;;;;;6060417;23;20193;-61
2022/09/06 05:51:05;;;;;;;23.67;14.50;;;15.90;99.90;;;;;;6060885;23;20193;-61
2022/09/06 05:53:36;;;;;;;21.70;14.50;;;16.00;99.90;;;;;;6061467;23;20179;-61
2022/09/06 05:56:05;;;;;;;21.60;14.43;;;16.00;99.90;;;;;;6062193;23;20168;-61
2022/09/06 05:58:34;;;;;;;21.37;14.37;;;16.10;99.90;;;;;;6060293;23;20231;-61
2022/09/06 06:01:07;;;;;;;19.57;14.03;;;16.10;99.90;;;;;;6060957;23;20259;-61
2022/09/06 06:03:36;;;;;;;23.77;14.33;;;16.20;99.90;;;;;;6061480;23;20166;-61
2022/09/06 06:06:04;;;;;;;23.70;14.37;;;16.20;99.90;;;;;;6035497;23;20746;-61
2022/09/06 06:08:34;;;;;;;25.47;14.67;;;16.20;99.90;;;;;;6062092;23;20227;-61
2022/09/06 06:11:04;;;;;;;21.03;14.47;;;16.30;99.90;;;;;;6062982;23;20200;-61
2022/09/06 06:13:38;;;;;;;18.87;14.17;;;16.40;99.90;;;;;;6064183;23;20193;-61
2022/09/06 06:16:07;;;;;;;19.33;14.47;;;16.50;99.90;;;;;;6064016;23;20253;-61
2022/09/06 06:18:38;;;;;;;18.60;13.93;;;16.50;99.90;;;;;;6062272;23;20622;-61
2022/09/06 06:21:11;;;;;;;19.20;14.47;;;16.60;99.90;;;;;;6062632;23;20827;-61
2022/09/06 06:23:41;;;;;;;18.23;13.17;;;16.80;99.90;;;;;;6063633;23;20553;-61
2022/09/06 06:26:12;;;;;;;18.60;12.73;;;16.90;99.90;;;;;;6062717;23;20714;-61
2022/09/06 06:28:41;;;;;;;21.83;12.73;;;17.00;99.90;;;;;;6063487;23;20337;-61
2022/09/06 06:31:11;;;;;;;18.67;12.20;;;17.20;99.90;;;;;;6063552;23;20196;-61
2022/09/06 06:33:40;;;;;;;17.40;11.20;;;17.40;99.90;;;;;;6062770;23;20246;-61
2022/09/06 06:36:20;;;;;;;17.43;10.30;;;17.50;99.90;;;;;;6062663;23;20164;-61
2022/09/06 06:38:49;;;;;;;14.63;10.07;;;17.70;99.90;;;;;;6064726;23;20161;-61
2022/09/06 06:41:22;;;;;;;16.77;9.13;;;17.80;99.90;;;;;;6065056;23;20195;-61
2022/09/06 06:43:54;;;;;;;15.20;9.47;;;17.90;99.90;;;;;;6065877;23;20217;-61
2022/09/06 06:46:24;;;;;;;16.27;8.23;;;18.10;99.90;;;;;;6064955;23;20169;-61
2022/09/06 06:48:54;;;;;;;10.47;8.07;;;18.20;99.90;;;;;;6039062;23;20199;-61
2022/09/06 06:51:25;;;;;;;10.20;7.67;;;18.20;99.90;;;;;;6064219;23;20621;-61
2022/09/06 06:53:55;;;;;;;13.90;7.87;;;18.40;99.90;;;;;;6037792;23;20501;-61
2022/09/06 06:56:27;;;;;;;11.50;6.63;;;18.50;99.90;;;;;;6037803;23;20171;-61
2022/09/06 06:58:58;;;;;;;8.93;5.67;;;18.70;99.90;;;;;;6039442;23;20233;-61
2022/09/06 07:01:28;;;;;;;8.33;6.47;;;18.80;99.90;;;;;;6037282;23;20250;-61
2022/09/06 07:03:57;;;;;;;7.33;5.93;;;18.90;99.90;;;;;;6063642;23;20164;-61
2022/09/06 07:06:26;;;;;;;8.07;5.90;;;19.00;99.90;;;;;;6039431;23;20254;-61
2022/09/06 07:09:15;;;;;;;6.73;5.83;;;19.30;99.90;;;;;;6065215;23;20648;-61
2022/09/06 07:11:45;;;;;;;9.77;5.23;;;19.40;99.90;;;;;;6037592;23;20251;-61
2022/09/06 07:14:13;;;;;;;6.07;4.50;;;19.60;99.90;;;;;;6039466;23;20164;-61
2022/09/06 07:16:42;;;;;;;6.73;4.93;;;19.70;99.90;;;;;;6064203;23;20254;-61
2022/09/06 07:19:11;;;;;;;7.50;5.30;;;19.80;99.90;;;;;;6050533;23;20172;-61
2022/09/06 07:21:59;;;;;;;10.23;6.57;;;19.90;99.90;;;;;;6064278;23;20366;-61
2022/09/06 07:24:32;;;;;;;12.00;7.80;;;20.10;99.90;;;;;;6066081;23;20173;-62
2022/09/06 07:27:02;;;;;;;9.60;6.83;;;20.20;99.90;;;;;;6064902;23;20164;-62
2022/09/06 07:29:50;;;;;;;6.60;5.33;;;20.30;99.90;;;;;;6064107;23;20421;-62
2022/09/06 07:32:19;;;;;;;5.13;4.73;;;20.40;99.90;;;;;;6062336;23;20259;-62
2022/09/06 07:34:47;;;;;;;5.50;4.53;;;20.60;99.90;;;;;;6039120;23;20172;-61
2022/09/06 07:37:15;;;;;;;6.27;5.67;;;20.70;99.90;;;;;;6063455;23;20192;-61
2022/09/06 07:39:44;;;;;;;5.77;5.00;;;20.90;99.90;;;;;;6063539;23;20233;-61
2022/09/06 07:42:15;;;;;;;5.60;5.00;;;20.90;99.90;;;;;;6063358;23;20171;-61
2022/09/06 07:44:43;;;;;;;7.37;5.57;;;21.00;99.90;;;;;;6063556;23;20172;-61
2022/09/06 07:47:14;;;;;;;6.27;4.90;;;21.00;99.90;;;;;;6064011;23;20168;-61
2022/09/06 07:50:03;;;;;;;12.93;7.10;;;21.10;99.90;;;;;;6066912;23;20216;-61
2022/09/06 07:52:51;;;;;;;9.20;6.00;;;21.20;99.90;;;;;;6064860;23;20180;-61
2022/09/06 07:55:39;;;;;;;9.77;5.60;;;21.30;99.90;;;;;;6067079;23;20164;-61
2022/09/06 07:58:09;;;;;;;6.60;4.57;;;21.30;99.90;;;;;;6064264;23;20188;-61
2022/09/06 08:00:39;;;;;;;9.57;5.63;;;21.20;99.90;;;;;;6065119;23;20248;-61
2022/09/06 08:03:08;;;;;;;5.30;4.77;;;21.20;99.90;;;;;;6065080;23;20553;-61
2022/09/06 08:05:36;;;;;;;7.33;4.37;;;21.40;99.90;;;;;;6064768;23;20176;-61
2022/09/06 08:08:25;;;;;;;5.00;4.20;;;21.50;99.90;;;;;;6064534;23;20211;-61
2022/09/06 08:11:16;;;;;;;7.20;4.53;;;21.60;99.90;;;;;;6066114;23;20494;-61
2022/09/06 08:13:49;;;;;;;6.40;5.03;;;21.60;99.90;;;;;;6066734;23;20594;-61
2022/09/06 08:16:18;;;;;;;8.40;5.17;;;21.70;99.90;;;;;;6066256;23;20709;-61
2022/09/06 08:18:50;;;;;;;14.30;5.77;;;21.90;99.90;;;;;;6066502;23;20161;-61
2022/09/06 08:21:19;;;;;;;6.90;5.13;;;22.00;99.90;;;;;;6066035;23;20172;-61
2022/09/06 08:23:50;;;;;;;7.50;5.30;;;22.10;99.90;;;;;;6066537;23;20202;-61
2022/09/06 08:26:21;;;;;;;9.07;5.70;;;22.30;99.90;;;;;;6066206;23;20207;-61
2022/09/06 08:28:53;;;;;;;5.10;4.60;;;22.50;99.90;;;;;;6065951;23;20191;-61
2022/09/06 08:31:21;;;;;;;4.60;4.17;;;22.60;99.90;;;;;;6065712;23;20200;-61
2022/09/06 08:33:51;;;;;;;9.60;4.50;;;22.70;99.90;;;;;;6066398;23;20165;-61
2022/09/06 08:36:20;;;;;;;4.70;4.30;;;22.80;99.90;;;;;;6065723;23;20253;-61
2022/09/06 08:38:48;;;;;;;5.90;5.17;;;22.80;99.90;;;;;;6066420;23;20536;-61
2022/09/06 08:41:26;;;;;;;10.03;6.93;;;23.00;99.90;;;;;;6066574;23;20257;-61
2022/09/06 08:43:59;;;;;;;8.43;5.43;;;23.40;99.90;;;;;;6040711;23;20239;-61
2022/09/06 08:46:55;;;;;;;5.23;4.57;;;23.40;99.90;;;;;;6064352;23;20176;-61
2022/09/06 08:49:25;;;;;;;6.07;4.30;;;23.40;99.90;;;;;;6065971;23;20189;-61
2022/09/06 08:52:26;;;;;;;5.13;4.33;;;23.30;99.90;;;;;;6065625;23;20547;-61
2022/09/06 08:55:04;;;;;;;4.80;4.40;;;23.60;99.90;;;;;;6016644;23;20170;-61
2022/09/06 08:57:48;;;;;;;4.43;4.13;;;23.80;99.90;;;;;;6066109;23;20280;-61
2022/09/06 09:00:20;;;;;;;6.67;3.80;;;24.00;99.90;;;;;;6066115;23;20741;-61
2022/09/06 09:02:52;;;;;;;4.67;4.00;;;24.00;99.90;;;;;;6064933;23;20548;-61
2022/09/06 09:05:24;;;;;;;4.50;4.07;;;24.00;99.90;;;;;;6064875;23;20624;-61
2022/09/06 09:08:05;;;;;;;4.23;3.83;;;24.00;99.90;;;;;;6039525;23;20214;-61
2022/09/06 09:10:41;;;;;;;4.23;3.90;;;24.10;99.90;;;;;;6039779;23;20290;-61
2022/09/06 09:13:22;;;;;;;7.13;3.73;;;24.20;99.90;;;;;;6040121;23;20181;-61
2022/09/06 09:15:52;;;;;;;4.17;3.33;;;24.20;99.90;;;;;;6066153;23;20621;-61
2022/09/06 09:18:25;;;;;;;3.73;3.53;;;24.40;99.90;;;;;;6066038;23;20243;-61
2022/09/06 09:20:53;;;;;;;3.47;3.10;;;24.50;99.90;;;;;;6065735;23;20537;-61
2022/09/06 09:23:22;;;;;;;3.00;2.87;;;24.60;99.90;;;;;;6016081;23;20198;-61
2022/09/06 09:25:52;;;;;;;5.47;3.30;;;24.70;99.90;;;;;;6040611;23;20240;-61
2022/09/06 09:28:23;;;;;;;4.83;2.73;;;25.00;99.90;;;;;;6065905;23;20533;-61
2022/09/06 09:30:55;;;;;;;5.80;2.87;;;24.80;99.90;;;;;;6038088;23;20165;-61
2022/09/06 09:33:29;;;;;;;5.13;3.20;;;24.90;99.90;;;;;;6040284;23;20232;-61
2022/09/06 09:36:00;;;;;;;5.53;3.37;;;25.20;99.90;;;;;;6064665;23;20444;-61
2022/09/06 09:38:31;;;;;;;3.10;2.80;;;25.30;99.90;;;;;;6065671;23;20157;-61
2022/09/06 09:41:02;;;;;;;5.10;2.80;;;25.30;99.90;;;;;;6066217;23;20207;-61
2022/09/06 09:43:33;;;;;;;6.63;3.00;;;25.30;99.90;;;;;;6065290;23;20196;-61
2022/09/06 09:46:28;;;;;;;2.73;2.50;;;25.60;99.90;;;;;;6065482;23;20215;-61
2022/09/06 09:49:04;;;;;;;5.53;2.13;;;25.50;99.90;;;;;;6064047;23;20518;-61
2022/09/06 09:51:34;;;;;;;3.07;2.37;;;25.50;99.90;;;;;;6039720;23;20223;-61
2022/09/06 09:54:05;;;;;;;4.00;2.43;;;25.50;99.90;;;;;;6065669;23;20204;-61
2022/09/06 09:56:50;;;;;;;3.38;2.00;;;25.60;99.90;;;;;;6065746;23;20221;-61
2022/09/06 09:59:26;;;;;;;2.80;1.83;;;26.00;99.90;;;;;;6063896;23;20662;-61
2022/09/06 10:01:58;;;;;;;4.75;2.17;;;26.10;99.90;;;;;;6064343;23;20616;-61
2022/09/06 10:04:34;;;;;;;3.25;2.17;;;26.20;99.90;;;;;;6039504;23;20591;-61
2022/09/06 10:07:14;;;;;;;2.40;2.20;;;26.00;99.90;;;;;;6039470;23;20200;-61
2022/09/06 10:09:45;;;;;;;3.15;2.00;;;26.20;99.90;;;;;;6040258;23;20199;-61
2022/09/06 10:12:19;;;;;;;3.33;2.10;;;26.70;99.90;;;;;;6063057;23;20201;-61
2022/09/06 10:14:49;;;;;;;2.40;2.20;;;27.00;99.90;;;;;;6062849;23;20968;-61
2022/09/06 10:17:30;;;;;;;2.83;2.30;;;27.00;99.90;;;;;;6063760;23;20177;-61
2022/09/06 10:20:02;;;;;;;9.25;2.53;;;26.90;99.90;;;;;;6064522;23;20179;-61
2022/09/06 10:22:32;;;;;;;3.17;1.80;;;27.00;99.90;;;;;;6064486;23;20207;-61
2022/09/06 10:25:30;;;;;;;3.30;2.05;;;27.30;99.90;;;;;;6065177;23;20243;-61
2022/09/06 10:28:27;;;;;;;1.95;1.77;;;27.30;99.90;;;;;;6065276;23;20509;-61
2022/09/06 10:31:17;;;;;;;1.60;1.50;;;27.40;99.90;;;;;;6032589;23;20250;-61
2022/09/06 10:34:02;;;;;;;3.50;1.75;;;27.50;99.90;;;;;;6036046;23;20538;-61
2022/09/06 10:36:34;;;;;;;1.77;1.67;;;27.90;99.90;;;;;;6066295;23;20239;-61
2022/09/06 10:39:06;;;;;;;3.15;1.73;;;28.10;99.90;;;;;;6065380;23;20156;-62
2022/09/06 10:41:51;;;;;;;7.63;1.88;;;28.00;99.90;;;;;;6064103;23;20240;-62
2022/09/06 10:44:35;;;;;;;1.40;1.40;;;28.30;99.90;;;;;;6038193;23;20185;-62
2022/09/06 10:47:10;;;;;;;3.00;1.55;;;28.80;99.90;;;;;;6064012;23;20175;-61
2022/09/06 10:49:44;;;;;;;2.05;1.70;;;29.00;99.90;;;;;;6065674;23;20729;-61
2022/09/06 10:52:21;;;;;;;1.63;1.55;;;28.70;99.90;;;;;;6064843;23;20251;-61
2022/09/06 10:54:49;;;;;;;2.20;1.85;;;28.60;99.90;;;;;;6065510;23;20164;-61
2022/09/06 10:57:21;;;;;;;1.48;1.38;;;28.50;99.90;;;;;;6064567;23;20266;-62
2022/09/06 11:00:12;;;;;;;1.80;1.70;;;29.00;99.90;;;;;;6039620;23;20199;-64
2022/09/06 11:02:45;;;;;;;1.65;1.55;;;29.40;99.90;;;;;;6065378;23;20220;-60
2022/09/06 11:05:21;;;;;;;1.67;1.67;;;29.30;99.90;;;;;;6043971;23;20156;-62
2022/09/06 11:08:11;;;;;;;3.00;1.85;;;29.20;99.90;;;;;;6044491;23;20207;-62
2022/09/06 11:11:06;;;;;;;1.70;1.65;;;28.50;99.90;;;;;;6069545;23;20285;-62
2022/09/06 11:13:34;;;;;;;2.25;1.70;;;28.60;99.90;;;;;;6069694;23;20187;-62
2022/09/06 11:16:08;;;;;;;3.13;1.40;;;28.80;99.90;;;;;;6044524;23;20188;-62
2022/09/06 11:18:40;;;;;;;2.85;1.52;;;29.10;99.90;;;;;;6069828;23;20161;-62
2022/09/06 11:21:26;;;;;;;2.67;1.77;;;29.10;99.90;;;;;;6069846;23;20244;-62
2022/09/06 11:24:06;;;;;;;2.03;1.83;;;29.00;99.90;;;;;;6069594;23;20235;-62
2022/09/06 11:26:42;;;;;;;2.05;1.70;;;29.10;99.90;;;;;;6069506;23;20171;-62
2022/09/06 11:29:18;;;;;;;2.53;1.50;;;29.10;99.90;;;;;;6069743;23;20634;-62
2022/09/06 11:31:52;;;;;;;5.53;1.70;;;29.10;99.90;;;;;;6069437;23;20227;-62
2022/09/06 11:34:44;;;;;;;1.60;1.50;;;29.30;99.90;;;;;;6069492;23;20241;-62
2022/09/06 11:37:25;;;;;;;2.40;1.77;;;29.50;99.90;;;;;;6069731;23;20192;-62
2022/09/06 11:40:05;;;;;;;1.70;1.70;;;29.90;99.90;;;;;;6068089;23;20164;-62
2022/09/06 11:43:18;;;;;;;3.67;1.85;;;30.20;99.90;;;;;;6067300;23;20172;-60
2022/09/06 11:45:49;;;;;;;1.60;1.48;;;30.50;99.90;;;;;;6040140;23;20198;-62
2022/09/06 11:49:00;;;;;;;1.75;1.73;;;30.70;99.90;;;;;;6067898;23;20168;-61
2022/09/06 11:51:35;;;;;;;2.58;1.55;;;30.80;99.90;;;;;;6066536;23;20274;-64
2022/09/06 11:54:27;;;;;;;2.63;1.60;;;30.80;99.90;;;;;;6066137;23;20573;-63
2022/09/06 11:56:59;;;;;;;1.70;1.70;;;30.80;99.90;;;;;;6053687;23;20672;-63
2022/09/06 11:59:42;;;;;;;1.60;1.50;;;31.00;99.90;;;;;;6066141;23;20157;-63
2022/09/06 12:02:30;;;;;;;1.65;1.55;;;30.80;99.90;;;;;;6066668;23;20196;-63
2022/09/06 12:05:18;;;;;;;2.13;1.70;;;30.60;99.90;;;;;;6067338;23;20168;-64
2022/09/06 12:08:13;;;;;;;1.58;1.38;;;30.70;99.90;;;;;;6065712;23;20227;-63
2022/09/06 12:10:58;;;;;;;1.60;1.50;;;30.80;99.90;;;;;;6067477;23;20192;-63
2022/09/06 12:13:49;;;;;;;1.73;1.63;;;30.80;99.90;;;;;;6066482;23;20629;-63
2022/09/06 12:16:18;;;;;;;2.17;1.70;;;30.70;99.90;;;;;;6065012;23;20199;-63
2022/09/06 12:19:01;;;;;;;1.75;1.45;;;30.70;99.90;;;;;;6064597;23;20168;-63
2022/09/06 12:21:39;;;;;;;2.72;1.55;;;30.60;99.90;;;;;;6067223;23;20192;-64
2022/09/06 12:24:09;;;;;;;1.80;1.70;;;30.60;99.90;;;;;;6066232;23;20584;-63
2022/09/06 12:26:51;;;;;;;1.98;1.50;;;30.40;99.90;;;;;;6067243;23;20171;-63
2022/09/06 12:29:25;;;;;;;2.20;1.60;;;30.30;99.90;;;;;;6066084;23;20177;-63
2022/09/06 12:31:56;;;;;;;4.43;1.77;;;30.40;99.90;;;;;;6066550;23;20213;-63
2022/09/06 12:34:28;;;;;;;5.15;1.70;;;30.60;99.90;;;;;;6066777;23;20206;-63
2022/09/06 12:36:58;;;;;;;4.50;1.60;;;30.70;99.90;;;;;;6066680;23;20172;-63
2022/09/06 12:39:30;;;;;;;2.55;1.80;;;30.80;99.90;;;;;;6065111;23;20252;-63
2022/09/06 12:42:03;;;;;;;3.15;1.90;;;30.70;99.90;;;;;;6066723;23;20161;-63
2022/09/06 12:44:34;;;;;;;2.25;1.85;;;30.70;99.90;;;;;;6066284;23;20181;-63
2022/09/06 12:47:09;;;;;;;1.80;1.60;;;30.40;99.90;;;;;;6066912;23;20198;-63
2022/09/06 12:49:38;;;;;;;2.15;1.60;;;30.50;99.90;;;;;;6063848;23;20203;-63
2022/09/06 12:52:10;;;;;;;2.20;2.00;;;30.60;99.90;;;;;;6039484;23;20499;-63
2022/09/06 12:54:46;;;;;;;3.92;1.75;;;30.40;99.90;;;;;;6065651;23;20501;-63
2022/09/06 12:57:20;;;;;;;2.00;1.90;;;29.90;99.90;;;;;;6065511;23;20755;-63
2022/09/06 12:59:50;;;;;;;2.40;1.73;;;29.70;99.90;;;;;;6065887;23;20257;-63
2022/09/06 13:02:23;;;;;;;3.00;1.58;;;29.70;99.90;;;;;;6065407;23;20643;-63
2022/09/06 13:04:56;;;;;;;3.40;1.70;;;29.70;99.90;;;;;;6064930;23;20169;-63
2022/09/06 13:07:27;;;;;;;1.70;1.60;;;30.00;99.90;;;;;;6066054;23;20277;-63
2022/09/06 13:09:57;;;;;;;3.53;1.92;;;30.20;99.90;;;;;;6065682;23;20162;-63